sensor_id;sensor_type;location;lat;lon;timestamp;temperature;humidity
19180;DHT22;9722;48.754;8.868;2023-06-14T00:02:20;12.20;64.30
19180;DHT22;9722;48.754;8.868;2023-06-14T00:05:41;12.10;64.50
19180;DHT22;9722;48.754;8.868;2023-06-14T00:09:04;12.00;65.00
19180;DHT22;9722;48.754;8.868;2023-06-14T00:12:25;12.00;66.60
19180;DHT22;9722;48.754;8.868;2023-06-14T00:15:45;12.00;66.40
19180;DHT22;9722;48.754;8.868;2023-06-14T00:19:06;12.00;66.30
19180;DHT22;9722;48.754;8.868;2023-06-14T00:22:27;11.90;66.80
19180;DHT22;9722;48.754;8.868;2023-06-14T00:25:51;11.80;67.20
19180;DHT22;9722;48.754;8.868;2023-06-14T00:29:11;11.80;67.30
19180;DHT22;9722;48.754;8.868;2023-06-14T00:32:32;11.70;67.50
19180;DHT22;9722;48.754;8.868;2023-06-14T00:35:52;11.70;67.70
19180;DHT22;9722;48.754;8.868;2023-06-14T00:39:16;11.70;68.40
19180;DHT22;9722;48.754;8.868;2023-06-14T00:42:36;11.70;69.40
19180;DHT22;9722;48.754;8.868;2023-06-14T00:45:57;11.70;69.60
19180;DHT22;9722;48.754;8.868;2023-06-14T00:49:18;11.70;70.80
19180;DHT22;9722;48.754;8.868;2023-06-14T00:52:39;11.60;71.00
19180;DHT22;9722;48.754;8.868;2023-06-14T00:56:00;11.60;71.00
19180;DHT22;9722;48.754;8.868;2023-06-14T00:59:20;11.50;71.20
19180;DHT22;9722;48.754;8.868;2023-06-14T01:02:41;11.40;71.10
19180;DHT22;9722;48.754;8.868;2023-06-14T01:09:55;11.30;71.70
19180;DHT22;9722;48.754;8.868;2023-06-14T01:13:37;11.40;73.80
19180;DHT22;9722;48.754;8.868;2023-06-14T01:16:59;11.40;73.20
19180;DHT22;9722;48.754;8.868;2023-06-14T01:20:22;11.40;73.00
19180;DHT22;9722;48.754;8.868;2023-06-14T01:23:42;11.30;72.80
19180;DHT22;9722;48.754;8.868;2023-06-14T01:27:03;11.30;73.30
19180;DHT22;9722;48.754;8.868;2023-06-14T01:30:24;11.30;73.60
19180;DHT22;9722;48.754;8.868;2023-06-14T01:33:46;11.20;73.10
19180;DHT22;9722;48.754;8.868;2023-06-14T01:37:07;11.20;73.00
19180;DHT22;9722;48.754;8.868;2023-06-14T01:40:28;11.10;73.10
19180;DHT22;9722;48.754;8.868;2023-06-14T01:43:52;11.00;73.40
19180;DHT22;9722;48.754;8.868;2023-06-14T01:47:13;10.90;73.80
19180;DHT22;9722;48.754;8.868;2023-06-14T01:50:34;10.80;74.20
19180;DHT22;9722;48.754;8.868;2023-06-14T01:53:55;10.70;74.50
19180;DHT22;9722;48.754;8.868;2023-06-14T01:57:15;10.60;75.80
19180;DHT22;9722;48.754;8.868;2023-06-14T02:00:36;10.50;76.10
19180;DHT22;9722;48.754;8.868;2023-06-14T02:03:57;10.40;77.30
19180;DHT22;9722;48.754;8.868;2023-06-14T02:07:17;10.30;77.80
19180;DHT22;9722;48.754;8.868;2023-06-14T02:10:37;10.30;77.80
19180;DHT22;9722;48.754;8.868;2023-06-14T02:13:58;10.20;78.60
19180;DHT22;9722;48.754;8.868;2023-06-14T02:17:20;10.20;78.10
19180;DHT22;9722;48.754;8.868;2023-06-14T02:20:40;10.20;78.40
19180;DHT22;9722;48.754;8.868;2023-06-14T02:24:01;10.20;78.30
19180;DHT22;9722;48.754;8.868;2023-06-14T02:27:22;10.20;78.10
19180;DHT22;9722;48.754;8.868;2023-06-14T02:30:42;10.20;78.10
19180;DHT22;9722;48.754;8.868;2023-06-14T02:34:03;10.10;78.30
19180;DHT22;9722;48.754;8.868;2023-06-14T02:37:23;10.10;78.80
19180;DHT22;9722;48.754;8.868;2023-06-14T02:40:44;10.10;78.90
19180;DHT22;9722;48.754;8.868;2023-06-14T02:44:05;10.10;78.90
19180;DHT22;9722;48.754;8.868;2023-06-14T02:47:25;10.10;78.80
19180;DHT22;9722;48.754;8.868;2023-06-14T02:50:46;10.10;78.90
19180;DHT22;9722;48.754;8.868;2023-06-14T02:54:06;10.10;78.90
19180;DHT22;9722;48.754;8.868;2023-06-14T02:57:27;10.00;78.90
19180;DHT22;9722;48.754;8.868;2023-06-14T03:00:47;10.00;79.00
19180;DHT22;9722;48.754;8.868;2023-06-14T03:04:08;10.00;79.20
19180;DHT22;9722;48.754;8.868;2023-06-14T03:07:29;10.00;80.00
19180;DHT22;9722;48.754;8.868;2023-06-14T03:10:50;10.00;80.20
19180;DHT22;9722;48.754;8.868;2023-06-14T03:14:10;10.00;80.80
19180;DHT22;9722;48.754;8.868;2023-06-14T03:17:31;9.90;82.20
19180;DHT22;9722;48.754;8.868;2023-06-14T03:20:53;9.90;82.60
19180;DHT22;9722;48.754;8.868;2023-06-14T03:24:14;9.80;82.70
19180;DHT22;9722;48.754;8.868;2023-06-14T03:27:36;9.80;82.50
19180;DHT22;9722;48.754;8.868;2023-06-14T03:30:57;9.80;82.40
19180;DHT22;9722;48.754;8.868;2023-06-14T03:34:17;9.70;82.40
19180;DHT22;9722;48.754;8.868;2023-06-14T03:37:38;9.80;82.60
19180;DHT22;9722;48.754;8.868;2023-06-14T03:40:58;9.80;82.80
19180;DHT22;9722;48.754;8.868;2023-06-14T03:44:19;9.80;83.10
19180;DHT22;9722;48.754;8.868;2023-06-14T03:47:39;9.90;89.10
19180;DHT22;9722;48.754;8.868;2023-06-14T03:51:00;11.00;97.10
19180;DHT22;9722;48.754;8.868;2023-06-14T03:54:20;12.50;99.90
19180;DHT22;9722;48.754;8.868;2023-06-14T03:57:41;13.80;99.90
19180;DHT22;9722;48.754;8.868;2023-06-14T04:01:02;14.70;98.60
19180;DHT22;9722;48.754;8.868;2023-06-14T04:04:22;15.40;94.70
19180;DHT22;9722;48.754;8.868;2023-06-14T04:07:48;15.90;91.20
19180;DHT22;9722;48.754;8.868;2023-06-14T04:11:11;16.40;86.60
19180;DHT22;9722;48.754;8.868;2023-06-14T04:14:31;16.70;82.20
19180;DHT22;9722;48.754;8.868;2023-06-14T04:17:55;17.00;78.10
19180;DHT22;9722;48.754;8.868;2023-06-14T04:21:17;17.20;75.20
19180;DHT22;9722;48.754;8.868;2023-06-14T04:24:38;17.30;73.00
19180;DHT22;9722;48.754;8.868;2023-06-14T04:27:58;17.40;71.80
19180;DHT22;9722;48.754;8.868;2023-06-14T04:31:19;17.50;70.50
19180;DHT22;9722;48.754;8.868;2023-06-14T04:34:45;17.50;66.10
19180;DHT22;9722;48.754;8.868;2023-06-14T04:38:06;17.10;63.80
19180;DHT22;9722;48.754;8.868;2023-06-14T04:41:32;16.40;63.00
19180;DHT22;9722;48.754;8.868;2023-06-14T04:44:52;15.80;63.00
19180;DHT22;9722;48.754;8.868;2023-06-14T04:48:16;15.20;63.60
19180;DHT22;9722;48.754;8.868;2023-06-14T04:51:39;14.80;64.10
19180;DHT22;9722;48.754;8.868;2023-06-14T04:55:00;14.40;64.40
19180;DHT22;9722;48.754;8.868;2023-06-14T04:58:22;14.00;65.20
19180;DHT22;9722;48.754;8.868;2023-06-14T05:01:42;13.70;66.20
19180;DHT22;9722;48.754;8.868;2023-06-14T05:05:08;13.40;67.10
19180;DHT22;9722;48.754;8.868;2023-06-14T05:08:29;13.30;67.90
19180;DHT22;9722;48.754;8.868;2023-06-14T05:11:50;13.20;68.70
19180;DHT22;9722;48.754;8.868;2023-06-14T05:15:10;13.20;74.30
19180;DHT22;9722;48.754;8.868;2023-06-14T05:18:31;13.60;75.00
19180;DHT22;9722;48.754;8.868;2023-06-14T05:21:54;13.90;72.50
19180;DHT22;9722;48.754;8.868;2023-06-14T05:25:14;14.10;70.80
19180;DHT22;9722;48.754;8.868;2023-06-14T05:28:35;14.30;70.80
19180;DHT22;9722;48.754;8.868;2023-06-14T05:31:56;14.40;70.90
19180;DHT22;9722;48.754;8.868;2023-06-14T05:35:16;14.50;71.50
19180;DHT22;9722;48.754;8.868;2023-06-14T05:38:37;14.60;72.30
19180;DHT22;9722;48.754;8.868;2023-06-14T05:41:57;14.70;72.00
19180;DHT22;9722;48.754;8.868;2023-06-14T05:45:18;14.80;72.20
19180;DHT22;9722;48.754;8.868;2023-06-14T05:48:38;15.00;71.80
19180;DHT22;9722;48.754;8.868;2023-06-14T05:51:59;15.20;71.20
19180;DHT22;9722;48.754;8.868;2023-06-14T05:55:19;15.60;70.60
19180;DHT22;9722;48.754;8.868;2023-06-14T05:58:40;16.10;68.90
19180;DHT22;9722;48.754;8.868;2023-06-14T06:02:01;16.70;67.10
19180;DHT22;9722;48.754;8.868;2023-06-14T06:05:22;17.30;65.30
19180;DHT22;9722;48.754;8.868;2023-06-14T06:08:42;17.80;63.80
19180;DHT22;9722;48.754;8.868;2023-06-14T06:12:05;18.30;62.10
19180;DHT22;9722;48.754;8.868;2023-06-14T06:15:26;18.80;60.70
19180;DHT22;9722;48.754;8.868;2023-06-14T06:18:47;19.20;59.40
19180;DHT22;9722;48.754;8.868;2023-06-14T06:22:07;19.70;58.90
19180;DHT22;9722;48.754;8.868;2023-06-14T06:25:28;20.30;58.30
19180;DHT22;9722;48.754;8.868;2023-06-14T06:28:49;20.80;57.10
19180;DHT22;9722;48.754;8.868;2023-06-14T06:32:09;21.30;56.30
19180;DHT22;9722;48.754;8.868;2023-06-14T06:35:30;21.80;56.70
19180;DHT22;9722;48.754;8.868;2023-06-14T06:38:53;22.30;55.00
19180;DHT22;9722;48.754;8.868;2023-06-14T06:42:14;22.80;52.80
19180;DHT22;9722;48.754;8.868;2023-06-14T06:45:34;23.20;51.40
19180;DHT22;9722;48.754;8.868;2023-06-14T06:48:55;23.60;50.10
19180;DHT22;9722;48.754;8.868;2023-06-14T06:52:16;23.90;49.10
19180;DHT22;9722;48.754;8.868;2023-06-14T06:55:37;24.30;48.40
19180;DHT22;9722;48.754;8.868;2023-06-14T06:59:00;24.70;47.40
19180;DHT22;9722;48.754;8.868;2023-06-14T07:02:21;25.10;46.40
19180;DHT22;9722;48.754;8.868;2023-06-14T07:05:41;25.40;45.60
19180;DHT22;9722;48.754;8.868;2023-06-14T07:09:02;25.70;44.70
19180;DHT22;9722;48.754;8.868;2023-06-14T07:12:23;26.00;44.50
19180;DHT22;9722;48.754;8.868;2023-06-14T07:15:44;26.30;43.50
19180;DHT22;9722;48.754;8.868;2023-06-14T07:19:05;26.60;42.90
19180;DHT22;9722;48.754;8.868;2023-06-14T07:22:26;27.00;42.30
19180;DHT22;9722;48.754;8.868;2023-06-14T07:25:46;27.30;41.80
19180;DHT22;9722;48.754;8.868;2023-06-14T07:29:07;27.60;41.30
19180;DHT22;9722;48.754;8.868;2023-06-14T07:32:27;28.00;41.30
19180;DHT22;9722;48.754;8.868;2023-06-14T07:35:50;28.30;39.60
19180;DHT22;9722;48.754;8.868;2023-06-14T07:39:12;28.60;38.40
19180;DHT22;9722;48.754;8.868;2023-06-14T07:42:36;28.70;37.50
19180;DHT22;9722;48.754;8.868;2023-06-14T07:45:56;29.00;37.10
19180;DHT22;9722;48.754;8.868;2023-06-14T07:49:17;29.20;36.70
19180;DHT22;9722;48.754;8.868;2023-06-14T07:52:37;29.40;36.40
19180;DHT22;9722;48.754;8.868;2023-06-14T07:55:58;29.50;36.30
19180;DHT22;9722;48.754;8.868;2023-06-14T07:59:19;29.80;36.00
19180;DHT22;9722;48.754;8.868;2023-06-14T08:02:39;30.00;35.80
19180;DHT22;9722;48.754;8.868;2023-06-14T08:06:00;30.20;36.00
19180;DHT22;9722;48.754;8.868;2023-06-14T08:09:24;30.40;35.90
19180;DHT22;9722;48.754;8.868;2023-06-14T08:12:45;30.80;35.20
19180;DHT22;9722;48.754;8.868;2023-06-14T08:16:06;30.90;34.60
19180;DHT22;9722;48.754;8.868;2023-06-14T08:19:26;31.00;34.10
19180;DHT22;9722;48.754;8.868;2023-06-14T08:22:47;31.20;33.60
19180;DHT22;9722;48.754;8.868;2023-06-14T08:26:09;31.30;32.70
19180;DHT22;9722;48.754;8.868;2023-06-14T08:29:29;31.30;32.40
19180;DHT22;9722;48.754;8.868;2023-06-14T08:32:51;31.20;32.50
19180;DHT22;9722;48.754;8.868;2023-06-14T08:36:12;31.40;32.80
19180;DHT22;9722;48.754;8.868;2023-06-14T08:39:33;31.60;32.80
19180;DHT22;9722;48.754;8.868;2023-06-14T08:42:54;31.80;32.80
19180;DHT22;9722;48.754;8.868;2023-06-14T08:46:17;32.10;32.30
19180;DHT22;9722;48.754;8.868;2023-06-14T08:49:40;32.20;32.10
19180;DHT22;9722;48.754;8.868;2023-06-14T08:53:06;32.40;32.00
19180;DHT22;9722;48.754;8.868;2023-06-14T08:56:31;32.60;32.00
19180;DHT22;9722;48.754;8.868;2023-06-14T08:59:52;32.90;31.50
19180;DHT22;9722;48.754;8.868;2023-06-14T09:03:14;33.10;31.40
19180;DHT22;9722;48.754;8.868;2023-06-14T09:06:34;33.30;31.40
19180;DHT22;9722;48.754;8.868;2023-06-14T09:13:30;33.70;30.40
19180;DHT22;9722;48.754;8.868;2023-06-14T09:16:54;33.70;30.40
19180;DHT22;9722;48.754;8.868;2023-06-14T09:20:15;33.70;30.00
19180;DHT22;9722;48.754;8.868;2023-06-14T09:23:43;33.80;29.80
19180;DHT22;9722;48.754;8.868;2023-06-14T09:27:04;33.60;29.90
19180;DHT22;9722;48.754;8.868;2023-06-14T09:30:25;33.60;29.90
19180;DHT22;9722;48.754;8.868;2023-06-14T09:33:47;33.90;30.00
19180;DHT22;9722;48.754;8.868;2023-06-14T09:37:08;34.40;30.00
19180;DHT22;9722;48.754;8.868;2023-06-14T09:40:33;34.80;29.50
19180;DHT22;9722;48.754;8.868;2023-06-14T09:43:54;35.30;29.30
19180;DHT22;9722;48.754;8.868;2023-06-14T09:47:18;35.70;29.70
19180;DHT22;9722;48.754;8.868;2023-06-14T09:50:39;36.10;29.00
19180;DHT22;9722;48.754;8.868;2023-06-14T09:54:02;36.40;28.40
19180;DHT22;9722;48.754;8.868;2023-06-14T09:57:25;36.70;28.20
19180;DHT22;9722;48.754;8.868;2023-06-14T10:00:47;37.00;27.60
19180;DHT22;9722;48.754;8.868;2023-06-14T10:04:10;37.30;27.20
19180;DHT22;9722;48.754;8.868;2023-06-14T10:07:52;37.60;26.80
19180;DHT22;9722;48.754;8.868;2023-06-14T10:11:13;37.70;26.00
19180;DHT22;9722;48.754;8.868;2023-06-14T10:14:34;37.60;26.40
19180;DHT22;9722;48.754;8.868;2023-06-14T10:18:14;37.80;26.20
19180;DHT22;9722;48.754;8.868;2023-06-14T10:22:06;37.70;25.90
19180;DHT22;9722;48.754;8.868;2023-06-14T10:25:29;37.90;25.60
19180;DHT22;9722;48.754;8.868;2023-06-14T10:29:09;38.40;25.80
19180;DHT22;9722;48.754;8.868;2023-06-14T10:32:29;38.70;25.30
19180;DHT22;9722;48.754;8.868;2023-06-14T10:36:10;39.10;24.60
19180;DHT22;9722;48.754;8.868;2023-06-14T10:39:32;38.70;24.30
19180;DHT22;9722;48.754;8.868;2023-06-14T10:42:52;37.10;25.00
19180;DHT22;9722;48.754;8.868;2023-06-14T10:46:17;35.80;25.90
19180;DHT22;9722;48.754;8.868;2023-06-14T10:49:43;35.70;25.90
19180;DHT22;9722;48.754;8.868;2023-06-14T10:53:22;36.60;26.00
19180;DHT22;9722;48.754;8.868;2023-06-14T10:56:50;37.30;25.20
19180;DHT22;9722;48.754;8.868;2023-06-14T11:00:12;36.90;25.60
19180;DHT22;9722;48.754;8.868;2023-06-14T11:03:52;36.70;26.50
19180;DHT22;9722;48.754;8.868;2023-06-14T11:11:06;38.40;25.30
19180;DHT22;9722;48.754;8.868;2023-06-14T11:14:30;39.30;25.00
19180;DHT22;9722;48.754;8.868;2023-06-14T11:17:51;39.90;24.70
19180;DHT22;9722;48.754;8.868;2023-06-14T11:21:17;40.50;24.50
19180;DHT22;9722;48.754;8.868;2023-06-14T11:24:38;40.90;24.00
19180;DHT22;9722;48.754;8.868;2023-06-14T11:27:59;41.10;23.20
19180;DHT22;9722;48.754;8.868;2023-06-14T11:31:20;41.50;23.20
19180;DHT22;9722;48.754;8.868;2023-06-14T11:34:40;41.10;23.20
19180;DHT22;9722;48.754;8.868;2023-06-14T11:38:01;40.40;23.50
19180;DHT22;9722;48.754;8.868;2023-06-14T11:41:24;40.50;23.70
19180;DHT22;9722;48.754;8.868;2023-06-14T11:44:46;41.00;23.30
19180;DHT22;9722;48.754;8.868;2023-06-14T11:48:07;41.70;23.00
19180;DHT22;9722;48.754;8.868;2023-06-14T11:51:27;42.20;22.70
19180;DHT22;9722;48.754;8.868;2023-06-14T11:54:48;42.60;22.40
19180;DHT22;9722;48.754;8.868;2023-06-14T11:58:10;43.00;21.90
19180;DHT22;9722;48.754;8.868;2023-06-14T12:01:31;43.30;21.50
19180;DHT22;9722;48.754;8.868;2023-06-14T12:04:52;43.10;21.60
19180;DHT22;9722;48.754;8.868;2023-06-14T12:08:12;42.30;21.80
19180;DHT22;9722;48.754;8.868;2023-06-14T12:11:37;41.40;22.10
19180;DHT22;9722;48.754;8.868;2023-06-14T12:14:57;39.80;22.90
19180;DHT22;9722;48.754;8.868;2023-06-14T12:18:18;39.20;23.40
19180;DHT22;9722;48.754;8.868;2023-06-14T12:21:39;39.40;23.30
19180;DHT22;9722;48.754;8.868;2023-06-14T12:25:04;39.60;23.40
19180;DHT22;9722;48.754;8.868;2023-06-14T12:28:31;39.30;23.70
19180;DHT22;9722;48.754;8.868;2023-06-14T12:31:52;39.40;24.10
19180;DHT22;9722;48.754;8.868;2023-06-14T12:35:15;39.40;23.80
19180;DHT22;9722;48.754;8.868;2023-06-14T12:38:37;39.80;23.80
19180;DHT22;9722;48.754;8.868;2023-06-14T12:41:58;40.10;23.40
19180;DHT22;9722;48.754;8.868;2023-06-14T12:45:18;39.20;23.50
19180;DHT22;9722;48.754;8.868;2023-06-14T12:48:39;37.80;23.90
19180;DHT22;9722;48.754;8.868;2023-06-14T12:51:59;37.40;24.50
19180;DHT22;9722;48.754;8.868;2023-06-14T12:55:20;37.80;24.50
19180;DHT22;9722;48.754;8.868;2023-06-14T12:58:40;38.60;24.40
19180;DHT22;9722;48.754;8.868;2023-06-14T13:02:18;39.40;24.20
19180;DHT22;9722;48.754;8.868;2023-06-14T13:05:38;40.10;23.70
19180;DHT22;9722;48.754;8.868;2023-06-14T13:09:01;40.00;23.40
19180;DHT22;9722;48.754;8.868;2023-06-14T13:12:24;40.20;24.00
19180;DHT22;9722;48.754;8.868;2023-06-14T13:15:44;40.50;23.50
19180;DHT22;9722;48.754;8.868;2023-06-14T13:19:06;40.70;23.30
19180;DHT22;9722;48.754;8.868;2023-06-14T13:22:27;40.60;22.90
19180;DHT22;9722;48.754;8.868;2023-06-14T13:25:48;40.00;23.10
19180;DHT22;9722;48.754;8.868;2023-06-14T13:29:10;38.80;23.60
19180;DHT22;9722;48.754;8.868;2023-06-14T13:32:31;37.20;24.50
19180;DHT22;9722;48.754;8.868;2023-06-14T13:35:51;35.70;25.60
19180;DHT22;9722;48.754;8.868;2023-06-14T13:39:13;34.50;26.40
19180;DHT22;9722;48.754;8.868;2023-06-14T13:42:33;33.50;26.90
19180;DHT22;9722;48.754;8.868;2023-06-14T13:45:54;32.50;27.60
19180;DHT22;9722;48.754;8.868;2023-06-14T13:49:15;31.70;27.90
19180;DHT22;9722;48.754;8.868;2023-06-14T13:52:35;30.90;28.30
19180;DHT22;9722;48.754;8.868;2023-06-14T13:55:56;30.00;28.80
19180;DHT22;9722;48.754;8.868;2023-06-14T13:59:17;29.60;29.40
19180;DHT22;9722;48.754;8.868;2023-06-14T14:02:37;29.30;29.90
19180;DHT22;9722;48.754;8.868;2023-06-14T14:05:58;29.10;30.00
19180;DHT22;9722;48.754;8.868;2023-06-14T14:09:18;29.00;31.00
19180;DHT22;9722;48.754;8.868;2023-06-14T14:12:39;28.80;30.10
19180;DHT22;9722;48.754;8.868;2023-06-14T14:16:00;28.60;30.30
19180;DHT22;9722;48.754;8.868;2023-06-14T14:19:21;28.50;30.70
19180;DHT22;9722;48.754;8.868;2023-06-14T14:22:42;28.40;30.70
19180;DHT22;9722;48.754;8.868;2023-06-14T14:26:03;28.10;31.10
19180;DHT22;9722;48.754;8.868;2023-06-14T14:29:24;27.80;30.70
19180;DHT22;9722;48.754;8.868;2023-06-14T14:32:45;27.60;31.00
19180;DHT22;9722;48.754;8.868;2023-06-14T14:36:05;27.60;31.40
19180;DHT22;9722;48.754;8.868;2023-06-14T14:39:27;27.50;31.60
19180;DHT22;9722;48.754;8.868;2023-06-14T14:42:48;27.50;32.30
19180;DHT22;9722;48.754;8.868;2023-06-14T14:46:09;27.60;32.50
19180;DHT22;9722;48.754;8.868;2023-06-14T14:49:31;27.60;32.50
19180;DHT22;9722;48.754;8.868;2023-06-14T14:52:51;27.40;32.40
19180;DHT22;9722;48.754;8.868;2023-06-14T14:56:12;27.20;32.90
19180;DHT22;9722;48.754;8.868;2023-06-14T14:59:33;27.10;33.30
19180;DHT22;9722;48.754;8.868;2023-06-14T15:02:53;27.10;33.60
19180;DHT22;9722;48.754;8.868;2023-06-14T15:06:14;27.10;33.80
19180;DHT22;9722;48.754;8.868;2023-06-14T15:09:34;27.10;33.70
19180;DHT22;9722;48.754;8.868;2023-06-14T15:12:55;27.00;33.70
19180;DHT22;9722;48.754;8.868;2023-06-14T15:16:15;26.90;33.90
19180;DHT22;9722;48.754;8.868;2023-06-14T15:19:36;26.90;34.00
19180;DHT22;9722;48.754;8.868;2023-06-14T15:22:56;26.80;33.90
19180;DHT22;9722;48.754;8.868;2023-06-14T15:26:20;26.80;34.20
19180;DHT22;9722;48.754;8.868;2023-06-14T15:29:44;26.70;34.40
19180;DHT22;9722;48.754;8.868;2023-06-14T15:33:04;26.60;34.70
19180;DHT22;9722;48.754;8.868;2023-06-14T15:36:25;26.50;34.90
19180;DHT22;9722;48.754;8.868;2023-06-14T15:39:45;26.40;35.00
19180;DHT22;9722;48.754;8.868;2023-06-14T15:43:06;26.40;34.90
19180;DHT22;9722;48.754;8.868;2023-06-14T15:46:27;26.30;34.90
19180;DHT22;9722;48.754;8.868;2023-06-14T15:49:48;26.20;35.00
19180;DHT22;9722;48.754;8.868;2023-06-14T15:53:08;26.10;35.10
19180;DHT22;9722;48.754;8.868;2023-06-14T15:56:29;26.00;35.20
19180;DHT22;9722;48.754;8.868;2023-06-14T15:59:49;25.80;35.50
19180;DHT22;9722;48.754;8.868;2023-06-14T16:03:10;25.70;35.60
19180;DHT22;9722;48.754;8.868;2023-06-14T16:06:30;25.60;35.90
19180;DHT22;9722;48.754;8.868;2023-06-14T16:09:51;25.60;35.90
19180;DHT22;9722;48.754;8.868;2023-06-14T16:13:11;25.60;35.90
19180;DHT22;9722;48.754;8.868;2023-06-14T16:16:32;25.50;36.00
19180;DHT22;9722;48.754;8.868;2023-06-14T16:19:52;25.30;36.10
19180;DHT22;9722;48.754;8.868;2023-06-14T16:23:13;25.20;36.00
19180;DHT22;9722;48.754;8.868;2023-06-14T16:26:33;25.20;35.80
19180;DHT22;9722;48.754;8.868;2023-06-14T16:29:54;25.20;36.10
19180;DHT22;9722;48.754;8.868;2023-06-14T16:33:15;25.20;36.20
19180;DHT22;9722;48.754;8.868;2023-06-14T16:36:35;25.10;36.50
19180;DHT22;9722;48.754;8.868;2023-06-14T16:39:55;25.00;36.80
19180;DHT22;9722;48.754;8.868;2023-06-14T16:43:16;25.00;37.00
19180;DHT22;9722;48.754;8.868;2023-06-14T16:46:37;24.90;37.10
19180;DHT22;9722;48.754;8.868;2023-06-14T16:49:57;24.80;37.30
19180;DHT22;9722;48.754;8.868;2023-06-14T16:53:18;24.80;37.40
19180;DHT22;9722;48.754;8.868;2023-06-14T16:56:38;24.70;37.40
19180;DHT22;9722;48.754;8.868;2023-06-14T16:59:59;24.70;37.80
19180;DHT22;9722;48.754;8.868;2023-06-14T17:03:20;24.60;38.10
19180;DHT22;9722;48.754;8.868;2023-06-14T17:06:40;24.60;38.50
19180;DHT22;9722;48.754;8.868;2023-06-14T17:10:01;24.50;38.70
19180;DHT22;9722;48.754;8.868;2023-06-14T17:13:21;24.50;38.90
19180;DHT22;9722;48.754;8.868;2023-06-14T17:16:42;24.50;38.90
19180;DHT22;9722;48.754;8.868;2023-06-14T17:20:03;24.50;38.80
19180;DHT22;9722;48.754;8.868;2023-06-14T17:23:24;24.40;38.80
19180;DHT22;9722;48.754;8.868;2023-06-14T17:26:44;24.40;39.00
19180;DHT22;9722;48.754;8.868;2023-06-14T17:30:05;24.30;39.00
19180;DHT22;9722;48.754;8.868;2023-06-14T17:33:26;24.20;39.00
19180;DHT22;9722;48.754;8.868;2023-06-14T17:36:47;24.10;38.90
19180;DHT22;9722;48.754;8.868;2023-06-14T17:40:11;24.10;39.50
19180;DHT22;9722;48.754;8.868;2023-06-14T17:43:31;24.00;39.70
19180;DHT22;9722;48.754;8.868;2023-06-14T17:46:52;23.90;40.20
19180;DHT22;9722;48.754;8.868;2023-06-14T17:50:12;23.70;40.60
19180;DHT22;9722;48.754;8.868;2023-06-14T17:53:33;23.60;40.90
19180;DHT22;9722;48.754;8.868;2023-06-14T17:56:53;23.50;41.00
19180;DHT22;9722;48.754;8.868;2023-06-14T18:00:14;23.40;41.20
19180;DHT22;9722;48.754;8.868;2023-06-14T18:03:35;23.30;41.40
19180;DHT22;9722;48.754;8.868;2023-06-14T18:06:55;23.30;41.70
19180;DHT22;9722;48.754;8.868;2023-06-14T18:10:16;23.10;41.70
19180;DHT22;9722;48.754;8.868;2023-06-14T18:13:37;23.10;41.90
19180;DHT22;9722;48.754;8.868;2023-06-14T18:16:57;22.90;42.00
19180;DHT22;9722;48.754;8.868;2023-06-14T18:20:19;22.80;42.10
19180;DHT22;9722;48.754;8.868;2023-06-14T18:23:39;22.70;42.40
19180;DHT22;9722;48.754;8.868;2023-06-14T18:27:00;22.50;42.40
19180;DHT22;9722;48.754;8.868;2023-06-14T18:30:22;22.50;42.80
19180;DHT22;9722;48.754;8.868;2023-06-14T18:33:42;22.40;43.20
19180;DHT22;9722;48.754;8.868;2023-06-14T18:37:03;22.20;43.30
19180;DHT22;9722;48.754;8.868;2023-06-14T18:40:24;22.20;43.70
19180;DHT22;9722;48.754;8.868;2023-06-14T18:43:45;22.10;43.90
19180;DHT22;9722;48.754;8.868;2023-06-14T18:47:05;21.90;44.10
19180;DHT22;9722;48.754;8.868;2023-06-14T18:50:26;21.80;44.40
19180;DHT22;9722;48.754;8.868;2023-06-14T18:53:46;21.70;44.60
19180;DHT22;9722;48.754;8.868;2023-06-14T18:57:07;21.60;45.00
19180;DHT22;9722;48.754;8.868;2023-06-14T19:00:28;21.40;45.20
19180;DHT22;9722;48.754;8.868;2023-06-14T19:03:50;21.30;45.40
19180;DHT22;9722;48.754;8.868;2023-06-14T19:07:10;21.20;45.70
19180;DHT22;9722;48.754;8.868;2023-06-14T19:10:31;21.10;45.80
19180;DHT22;9722;48.754;8.868;2023-06-14T19:13:52;20.90;46.00
19180;DHT22;9722;48.754;8.868;2023-06-14T19:17:12;20.80;46.30
19180;DHT22;9722;48.754;8.868;2023-06-14T19:20:33;20.60;46.50
19180;DHT22;9722;48.754;8.868;2023-06-14T19:23:54;20.50;46.60
19180;DHT22;9722;48.754;8.868;2023-06-14T19:27:16;20.40;46.70
19180;DHT22;9722;48.754;8.868;2023-06-14T19:30:36;20.30;47.10
19180;DHT22;9722;48.754;8.868;2023-06-14T19:33:57;20.10;47.30
19180;DHT22;9722;48.754;8.868;2023-06-14T19:37:18;20.00;47.60
19180;DHT22;9722;48.754;8.868;2023-06-14T19:40:39;19.90;47.90
19180;DHT22;9722;48.754;8.868;2023-06-14T19:44:00;19.70;48.10
19180;DHT22;9722;48.754;8.868;2023-06-14T19:47:21;19.60;48.30
19180;DHT22;9722;48.754;8.868;2023-06-14T19:50:42;19.50;48.70
19180;DHT22;9722;48.754;8.868;2023-06-14T19:54:03;19.40;49.00
19180;DHT22;9722;48.754;8.868;2023-06-14T19:57:24;19.20;49.10
19180;DHT22;9722;48.754;8.868;2023-06-14T20:00:45;19.10;49.30
19180;DHT22;9722;48.754;8.868;2023-06-14T20:04:05;19.10;49.60
19180;DHT22;9722;48.754;8.868;2023-06-14T20:07:26;18.90;49.80
19180;DHT22;9722;48.754;8.868;2023-06-14T20:10:46;18.80;50.00
19180;DHT22;9722;48.754;8.868;2023-06-14T20:14:07;18.70;50.00
19180;DHT22;9722;48.754;8.868;2023-06-14T20:17:27;18.60;50.30
19180;DHT22;9722;48.754;8.868;2023-06-14T20:20:49;18.60;50.60
19180;DHT22;9722;48.754;8.868;2023-06-14T20:24:14;18.50;50.90
19180;DHT22;9722;48.754;8.868;2023-06-14T20:27:36;18.40;51.30
19180;DHT22;9722;48.754;8.868;2023-06-14T20:30:57;18.20;51.80
19180;DHT22;9722;48.754;8.868;2023-06-14T20:34:17;18.20;52.50
19180;DHT22;9722;48.754;8.868;2023-06-14T20:37:38;18.10;53.60
19180;DHT22;9722;48.754;8.868;2023-06-14T20:40:58;17.90;53.40
19180;DHT22;9722;48.754;8.868;2023-06-14T20:44:19;17.80;54.00
19180;DHT22;9722;48.754;8.868;2023-06-14T20:47:42;17.70;54.40
19180;DHT22;9722;48.754;8.868;2023-06-14T20:51:03;17.50;55.00
19180;DHT22;9722;48.754;8.868;2023-06-14T20:54:23;17.50;55.30
19180;DHT22;9722;48.754;8.868;2023-06-14T20:57:44;17.40;55.20
19180;DHT22;9722;48.754;8.868;2023-06-14T21:01:05;17.30;55.40
19180;DHT22;9722;48.754;8.868;2023-06-14T21:04:25;17.30;55.50
19180;DHT22;9722;48.754;8.868;2023-06-14T21:07:46;17.30;55.80
19180;DHT22;9722;48.754;8.868;2023-06-14T21:11:06;17.30;56.10
19180;DHT22;9722;48.754;8.868;2023-06-14T21:14:27;17.20;56.30
19180;DHT22;9722;48.754;8.868;2023-06-14T21:17:47;17.20;56.50
19180;DHT22;9722;48.754;8.868;2023-06-14T21:21:08;17.10;56.70
19180;DHT22;9722;48.754;8.868;2023-06-14T21:24:28;17.10;57.00
19180;DHT22;9722;48.754;8.868;2023-06-14T21:27:49;17.00;57.20
19180;DHT22;9722;48.754;8.868;2023-06-14T21:31:10;16.90;57.20
19180;DHT22;9722;48.754;8.868;2023-06-14T21:34:30;16.80;57.50
19180;DHT22;9722;48.754;8.868;2023-06-14T21:37:51;16.70;57.80
19180;DHT22;9722;48.754;8.868;2023-06-14T21:41:11;16.60;57.80
19180;DHT22;9722;48.754;8.868;2023-06-14T21:44:35;16.60;58.10
19180;DHT22;9722;48.754;8.868;2023-06-14T21:47:58;16.50;58.30